Time;durP1;ratioP1;P1;durP2;ratioP2;P2;SDS_P1;SDS_P2;PMS_P1;PMS_P2;Temp;Humidity;BMP_temperature;BMP_pressure;BME280_temperature;BME280_humidity;BME280_pressure;Samples;Min_cycle;Max_cycle;Signal;HPM_P1;HPM_P2
2023/01/07 00:01:09;;;;;;;115.82;41.45;;;;;;;;;;4965618;28;20061;-72
2023/01/07 00:03:37;;;;;;;115.00;42.33;;;;;;;;;;4967586;28;20053;-71
2023/01/07 00:06:05;;;;;;;112.93;41.83;;;;;;;;;;4969214;28;20047;-72
2023/01/07 00:08:33;;;;;;;114.45;40.22;;;;;;;;;;4969465;28;20046;-71
2023/01/07 00:11:02;;;;;;;107.97;39.92;;;;;;;;;;4965360;28;20377;-71
2023/01/07 00:13:30;;;;;;;114.97;39.97;;;;;;;;;;4971601;28;20050;-71
2023/01/07 00:15:58;;;;;;;110.93;37.80;;;;;;;;;;4967858;28;20051;-71
2023/01/07 00:18:25;;;;;;;118.18;39.72;;;;;;;;;;4973388;28;20047;-71
2023/01/07 00:20:52;;;;;;;107.40;38.15;;;;;;;;;;4966465;28;20501;-71
2023/01/07 00:23:20;;;;;;;108.88;36.67;;;;;;;;;;4973851;28;20042;-71
2023/01/07 00:25:47;;;;;;;108.03;36.60;;;;;;;;;;4967019;28;20058;-72
2023/01/07 00:28:16;;;;;;;105.00;36.90;;;;;;;;;;4973163;28;20051;-71
2023/01/07 00:30:43;;;;;;;115.30;35.85;;;;;;;;;;4972576;28;20050;-72
2023/01/07 00:33:13;;;;;;;104.70;32.55;;;;;;;;;;4968196;28;20050;-72
2023/01/07 00:35:43;;;;;;;89.47;31.58;;;;;;;;;;4973519;28;20485;-72
2023/01/07 00:38:11;;;;;;;104.25;32.05;;;;;;;;;;4970460;28;20133;-72
2023/01/07 00:40:38;;;;;;;95.22;31.67;;;;;;;;;;4971823;28;20081;-72
2023/01/07 00:43:05;;;;;;;91.30;31.08;;;;;;;;;;4968435;28;20536;-72
2023/01/07 00:45:35;;;;;;;85.93;29.30;;;;;;;;;;4971578;28;20058;-72
2023/01/07 00:48:02;;;;;;;88.13;28.92;;;;;;;;;;4962977;28;20085;-72
2023/01/07 00:50:30;;;;;;;85.25;32.08;;;;;;;;;;4969083;28;20053;-72
2023/01/07 00:52:58;;;;;;;92.80;31.67;;;;;;;;;;4970811;28;20520;-72
2023/01/07 00:55:26;;;;;;;103.78;32.20;;;;;;;;;;4968967;28;20108;-72
2023/01/07 00:57:53;;;;;;;93.50;32.08;;;;;;;;;;4972743;28;20054;-72
2023/01/07 01:00:21;;;;;;;87.13;31.88;;;;;;;;;;4965389;28;20049;-71
2023/01/07 01:02:50;;;;;;;91.85;31.90;;;;;;;;;;4971929;28;20057;-72
2023/01/07 01:05:18;;;;;;;85.88;31.70;;;;;;;;;;4967418;28;20058;-71
2023/01/07 01:07:46;;;;;;;86.75;33.08;;;;;;;;;;4970167;28;20050;-72
2023/01/07 01:10:14;;;;;;;92.70;34.88;;;;;;;;;;4970776;28;20046;-72
2023/01/07 01:12:41;;;;;;;91.70;34.67;;;;;;;;;;4968275;28;20039;-72
2023/01/07 01:15:10;;;;;;;95.10;35.67;;;;;;;;;;4964599;28;20055;-72
2023/01/07 01:17:37;;;;;;;84.07;35.33;;;;;;;;;;4970919;28;20065;-72
2023/01/07 01:20:06;;;;;;;82.10;34.90;;;;;;;;;;4971086;28;20425;-72
2023/01/07 01:22:34;;;;;;;78.85;35.60;;;;;;;;;;4970432;28;20066;-72
2023/01/07 01:25:01;;;;;;;76.18;34.60;;;;;;;;;;4972321;28;20409;-72
2023/01/07 01:27:30;;;;;;;77.53;33.88;;;;;;;;;;4970216;28;20059;-72
2023/01/07 01:29:57;;;;;;;73.45;34.38;;;;;;;;;;4967320;28;20075;-72
2023/01/07 01:32:24;;;;;;;83.60;35.20;;;;;;;;;;4965351;28;20051;-72
2023/01/07 01:34:52;;;;;;;71.75;33.58;;;;;;;;;;4964531;28;20055;-72
2023/01/07 01:37:20;;;;;;;66.38;32.50;;;;;;;;;;4959650;28;20656;-72
2023/01/07 01:39:47;;;;;;;66.25;32.55;;;;;;;;;;4961386;28;20043;-72
2023/01/07 01:42:15;;;;;;;64.25;32.58;;;;;;;;;;4964540;28;20506;-72
2023/01/07 01:44:47;;;;;;;67.15;32.88;;;;;;;;;;4970653;28;20054;-72
2023/01/07 01:47:16;;;;;;;62.25;32.42;;;;;;;;;;4969887;28;20054;-71
2023/01/07 01:49:46;;;;;;;61.33;32.63;;;;;;;;;;4969864;28;20058;-72
2023/01/07 01:52:14;;;;;;;57.47;31.25;;;;;;;;;;4968946;28;20066;-72
2023/01/07 01:54:44;;;;;;;54.70;31.95;;;;;;;;;;4970345;28;20493;-72
2023/01/07 01:57:12;;;;;;;51.22;32.47;;;;;;;;;;4969636;28;20042;-72
2023/01/07 01:59:41;;;;;;;57.63;31.08;;;;;;;;;;4972859;28;20051;-72
2023/01/07 02:02:09;;;;;;;53.13;30.45;;;;;;;;;;4970127;28;20069;-72
2023/01/07 02:04:37;;;;;;;49.83;30.20;;;;;;;;;;4967959;28;20055;-72
2023/01/07 02:07:05;;;;;;;47.80;29.38;;;;;;;;;;4970267;28;20058;-72
2023/01/07 02:09:33;;;;;;;50.78;30.05;;;;;;;;;;4974040;28;20046;-72
2023/01/07 02:12:09;;;;;;;49.38;30.52;;;;;;;;;;4970005;28;20054;-72
2023/01/07 02:14:47;;;;;;;44.65;29.08;;;;;;;;;;4966944;28;20478;-72
2023/01/07 02:17:19;;;;;;;52.35;31.00;;;;;;;;;;4968458;28;20055;-72
2023/01/07 02:20:10;;;;;;;45.85;29.20;;;;;;;;;;4965421;28;20058;-72
2023/01/07 02:22:48;;;;;;;47.75;30.15;;;;;;;;;;4967544;28;20051;-72
2023/01/07 02:25:21;;;;;;;44.30;29.88;;;;;;;;;;4970688;28;20062;-72
2023/01/07 02:28:02;;;;;;;42.22;29.55;;;;;;;;;;4965684;28;20429;-72
2023/01/07 02:30:47;;;;;;;50.97;30.65;;;;;;;;;;4971709;28;20057;-72
2023/01/07 02:33:19;;;;;;;44.15;30.80;;;;;;;;;;4950429;28;20046;-72
2023/01/07 02:36:04;;;;;;;41.05;30.70;;;;;;;;;;4961379;28;20130;-72
2023/01/07 02:38:35;;;;;;;44.97;29.13;;;;;;;;;;4965545;28;20051;-72
2023/01/07 02:41:06;;;;;;;41.35;30.25;;;;;;;;;;4964238;28;20054;-72
2023/01/07 02:43:42;;;;;;;40.00;29.88;;;;;;;;;;4974339;28;20050;-72
2023/01/07 02:46:14;;;;;;;43.70;29.83;;;;;;;;;;4976164;28;20047;-72
2023/01/07 02:48:44;;;;;;;39.42;26.77;;;;;;;;;;4940935;28;20116;-72
2023/01/07 02:51:12;;;;;;;45.28;28.65;;;;;;;;;;4951392;28;20062;-72
2023/01/07 02:53:40;;;;;;;42.33;29.25;;;;;;;;;;4951688;28;20481;-72
2023/01/07 02:56:11;;;;;;;38.85;28.15;;;;;;;;;;4954190;28;20046;-72
2023/01/07 02:58:47;;;;;;;37.60;26.83;;;;;;;;;;4976931;28;20082;-72
2023/01/07 03:01:25;;;;;;;36.45;26.70;;;;;;;;;;4969455;28;20058;-72
2023/01/07 03:03:58;;;;;;;36.50;25.67;;;;;;;;;;4974571;28;20090;-72
2023/01/07 03:06:31;;;;;;;35.35;25.00;;;;;;;;;;4952722;28;20059;-72
2023/01/07 03:09:03;;;;;;;33.70;23.88;;;;;;;;;;4972255;28;20627;-71
2023/01/07 03:11:33;;;;;;;34.80;24.00;;;;;;;;;;4967984;28;20050;-72
2023/01/07 03:14:04;;;;;;;32.28;21.25;;;;;;;;;;4961754;28;20054;-72
2023/01/07 03:16:34;;;;;;;30.58;20.95;;;;;;;;;;4962735;28;20051;-72
2023/01/07 03:19:04;;;;;;;29.98;21.35;;;;;;;;;;4969987;28;20497;-72
2023/01/07 03:21:33;;;;;;;25.98;20.13;;;;;;;;;;4962235;28;20043;-72
2023/01/07 03:24:01;;;;;;;27.25;18.92;;;;;;;;;;4968401;28;20055;-72
2023/01/07 03:26:31;;;;;;;26.33;18.25;;;;;;;;;;4964152;28;20046;-72
2023/01/07 03:29:00;;;;;;;26.23;18.40;;;;;;;;;;4962201;28;20058;-72
2023/01/07 03:31:27;;;;;;;23.92;17.63;;;;;;;;;;4966186;28;20054;-72
2023/01/07 03:33:56;;;;;;;22.50;16.75;;;;;;;;;;4968844;28;20061;-72
2023/01/07 03:36:28;;;;;;;25.77;17.20;;;;;;;;;;4949256;28;20544;-72
2023/01/07 03:38:56;;;;;;;27.15;17.35;;;;;;;;;;4967059;28;20055;-72
2023/01/07 03:44:07;;;;;;;22.70;16.85;;;;;;;;;;4967979;28;20469;-72
2023/01/07 03:46:35;;;;;;;24.50;17.65;;;;;;;;;;4967376;28;20058;-72
2023/01/07 03:49:02;;;;;;;24.50;17.10;;;;;;;;;;4970389;28;20089;-72
2023/01/07 03:51:31;;;;;;;22.83;16.77;;;;;;;;;;4955891;28;20442;-72
2023/01/07 03:53:58;;;;;;;20.13;16.15;;;;;;;;;;4970361;28;20046;-72
2023/01/07 03:56:25;;;;;;;28.92;17.50;;;;;;;;;;4968887;28;20050;-72
2023/01/07 03:58:53;;;;;;;23.88;17.45;;;;;;;;;;4972712;28;20517;-72
2023/01/07 04:01:20;;;;;;;23.08;16.67;;;;;;;;;;4973657;28;20059;-72
2023/01/07 04:03:47;;;;;;;24.13;16.73;;;;;;;;;;4971396;28;20534;-72
2023/01/07 04:06:14;;;;;;;24.88;17.73;;;;;;;;;;4970975;28;20047;-72
2023/01/07 04:08:43;;;;;;;20.60;16.38;;;;;;;;;;4967996;28;20049;-72
2023/01/07 04:11:10;;;;;;;23.33;16.40;;;;;;;;;;4971332;28;20055;-72
2023/01/07 04:13:37;;;;;;;27.35;16.55;;;;;;;;;;4971933;28;20043;-72
2023/01/07 04:16:05;;;;;;;23.50;16.45;;;;;;;;;;4972665;28;20058;-72
2023/01/07 04:18:32;;;;;;;20.80;15.93;;;;;;;;;;4970676;28;20495;-72
2023/01/07 04:20:59;;;;;;;20.83;16.02;;;;;;;;;;4968700;28;20053;-72
2023/01/07 04:23:26;;;;;;;26.02;17.08;;;;;;;;;;4966713;28;20650;-72
2023/01/07 04:25:55;;;;;;;22.58;16.30;;;;;;;;;;4970420;28;20117;-72
2023/01/07 04:28:22;;;;;;;24.80;16.80;;;;;;;;;;4969580;28;20043;-72
2023/01/07 04:30:49;;;;;;;25.95;16.63;;;;;;;;;;4970233;28;20049;-72
2023/01/07 04:33:17;;;;;;;24.15;16.63;;;;;;;;;;4968451;28;20058;-72
2023/01/07 04:35:46;;;;;;;26.20;18.60;;;;;;;;;;4969132;28;20402;-72
2023/01/07 04:38:13;;;;;;;26.02;17.75;;;;;;;;;;4967099;28;20054;-72
2023/01/07 04:40:40;;;;;;;25.55;17.33;;;;;;;;;;4971037;28;20054;-72
2023/01/07 04:43:09;;;;;;;27.27;19.65;;;;;;;;;;4969368;28;20434;-72
2023/01/07 04:45:36;;;;;;;25.60;17.98;;;;;;;;;;4971689;28;20063;-72
2023/01/07 04:48:03;;;;;;;27.30;18.23;;;;;;;;;;4969162;28;20410;-72
2023/01/07 04:50:30;;;;;;;27.90;18.30;;;;;;;;;;4968775;28;20050;-72
2023/01/07 04:52:57;;;;;;;29.33;18.95;;;;;;;;;;4969752;28;20054;-72
2023/01/07 04:55:25;;;;;;;27.17;18.55;;;;;;;;;;4967185;28;20398;-72
2023/01/07 04:57:52;;;;;;;23.75;18.30;;;;;;;;;;4969923;28;20470;-72
2023/01/07 05:00:21;;;;;;;26.20;18.65;;;;;;;;;;4969182;28;20066;-72
2023/01/07 05:02:48;;;;;;;24.35;17.90;;;;;;;;;;4968054;28;20054;-72
2023/01/07 05:05:15;;;;;;;27.67;18.58;;;;;;;;;;4975315;28;20047;-72
2023/01/07 05:07:42;;;;;;;28.08;19.00;;;;;;;;;;4954041;28;20055;-72
2023/01/07 05:10:10;;;;;;;23.40;17.58;;;;;;;;;;4951917;28;20117;-72
2023/01/07 05:12:37;;;;;;;30.23;18.67;;;;;;;;;;4968191;28;20057;-71
2023/01/07 05:15:04;;;;;;;27.23;18.67;;;;;;;;;;4966631;28;20418;-72
2023/01/07 05:17:34;;;;;;;25.88;17.98;;;;;;;;;;4939827;28;20047;-72
2023/01/07 05:20:01;;;;;;;26.42;18.00;;;;;;;;;;4965733;28;20048;-72
2023/01/07 05:22:28;;;;;;;26.60;17.92;;;;;;;;;;4972410;28;20047;-72
2023/01/07 05:24:55;;;;;;;25.65;17.65;;;;;;;;;;4965470;28;20253;-72
2023/01/07 05:27:22;;;;;;;27.60;17.50;;;;;;;;;;4970168;28;20042;-72
2023/01/07 05:29:50;;;;;;;27.40;17.65;;;;;;;;;;4968217;28;20059;-72
2023/01/07 05:32:17;;;;;;;28.80;17.60;;;;;;;;;;4971406;28;20499;-72
2023/01/07 05:34:45;;;;;;;24.95;17.05;;;;;;;;;;4969331;28;20413;-72
2023/01/07 05:37:13;;;;;;;29.63;17.30;;;;;;;;;;4954250;28;20054;-72
2023/01/07 05:39:40;;;;;;;24.17;17.00;;;;;;;;;;4969969;28;20063;-72
2023/01/07 05:42:07;;;;;;;29.80;17.52;;;;;;;;;;4954909;28;20055;-72
2023/01/07 05:44:34;;;;;;;25.55;16.75;;;;;;;;;;4949619;28;20473;-72
2023/01/07 05:47:01;;;;;;;25.90;17.10;;;;;;;;;;4951888;28;20054;-72
2023/01/07 05:49:29;;;;;;;24.90;17.65;;;;;;;;;;4972976;28;20050;-72
2023/01/07 05:51:57;;;;;;;24.02;16.67;;;;;;;;;;4972087;28;20062;-72
2023/01/07 05:54:24;;;;;;;26.05;17.42;;;;;;;;;;4967078;28;20049;-72
2023/01/07 05:56:52;;;;;;;22.60;16.48;;;;;;;;;;4969231;28;20058;-72
2023/01/07 05:59:19;;;;;;;26.02;17.33;;;;;;;;;;4972520;28;20067;-72
2023/01/07 06:01:46;;;;;;;25.10;15.95;;;;;;;;;;4969646;28;20062;-72
2023/01/07 06:04:13;;;;;;;31.48;17.45;;;;;;;;;;4968852;28;20050;-72
2023/01/07 06:06:41;;;;;;;24.77;17.00;;;;;;;;;;4967471;28;20077;-72
2023/01/07 06:09:09;;;;;;;24.00;17.05;;;;;;;;;;4962544;28;21113;-71
2023/01/07 06:11:36;;;;;;;27.35;16.60;;;;;;;;;;4968359;28;20576;-72
2023/01/07 06:14:04;;;;;;;23.73;16.70;;;;;;;;;;4964561;28;20051;-72
2023/01/07 06:16:31;;;;;;;24.15;15.60;;;;;;;;;;4961694;28;20078;-72
2023/01/07 06:18:58;;;;;;;25.80;17.15;;;;;;;;;;4959654;28;20047;-72
2023/01/07 06:21:25;;;;;;;22.30;14.98;;;;;;;;;;4962857;28;20509;-72
2023/01/07 06:23:52;;;;;;;25.13;15.55;;;;;;;;;;4968381;28;20058;-72
2023/01/07 06:26:21;;;;;;;24.13;15.48;;;;;;;;;;4968257;28;20066;-72
2023/01/07 06:28:48;;;;;;;23.92;15.27;;;;;;;;;;4966634;28;20046;-72
2023/01/07 06:31:15;;;;;;;24.17;15.15;;;;;;;;;;4968600;28;20528;-72
2023/01/07 06:33:43;;;;;;;22.95;13.73;;;;;;;;;;4965989;28;20050;-72
2023/01/07 06:36:11;;;;;;;23.70;13.88;;;;;;;;;;4967400;28;20469;-72
2023/01/07 06:38:38;;;;;;;23.35;14.35;;;;;;;;;;4966846;28;20147;-72
2023/01/07 06:41:05;;;;;;;24.95;14.18;;;;;;;;;;4970860;28;20059;-72
2023/01/07 06:43:34;;;;;;;23.52;14.45;;;;;;;;;;4969359;28;20058;-72
2023/01/07 06:46:01;;;;;;;21.20;14.45;;;;;;;;;;4967244;28;20057;-72
2023/01/07 06:48:28;;;;;;;28.02;15.13;;;;;;;;;;4967813;28;20098;-72
2023/01/07 06:50:56;;;;;;;28.10;16.35;;;;;;;;;;4968881;28;20046;-72
2023/01/07 06:53:23;;;;;;;20.65;14.40;;;;;;;;;;4967408;28;20078;-72
2023/01/07 06:55:51;;;;;;;25.98;16.15;;;;;;;;;;4959436;28;20058;-71
2023/01/07 06:58:18;;;;;;;23.05;15.45;;;;;;;;;;4958987;28;20054;-72
2023/01/07 07:00:47;;;;;;;24.42;15.25;;;;;;;;;;4961088;28;20042;-71
2023/01/07 07:03:14;;;;;;;26.50;14.73;;;;;;;;;;4959281;28;20055;-71
2023/01/07 07:05:41;;;;;;;29.83;15.30;;;;;;;;;;4963873;28;20157;-71
2023/01/07 07:08:08;;;;;;;27.20;14.88;;;;;;;;;;4959707;28;20062;-71
2023/01/07 07:10:36;;;;;;;23.10;13.88;;;;;;;;;;4961303;28;20051;-71
2023/01/07 07:13:03;;;;;;;22.17;14.52;;;;;;;;;;4963829;28;20062;-71
2023/01/07 07:15:30;;;;;;;25.70;14.10;;;;;;;;;;4961191;28;20089;-71
2023/01/07 07:17:59;;;;;;;22.23;14.05;;;;;;;;;;4962695;28;20498;-71
2023/01/07 07:20:26;;;;;;;23.95;14.18;;;;;;;;;;4959585;28;20058;-71
2023/01/07 07:22:53;;;;;;;23.90;14.25;;;;;;;;;;4956705;28;20051;-72
2023/01/07 07:25:21;;;;;;;19.08;14.05;;;;;;;;;;4961089;28;20054;-71
2023/01/07 07:27:48;;;;;;;26.25;14.07;;;;;;;;;;4965107;28;20054;-71
2023/01/07 07:30:16;;;;;;;21.13;14.48;;;;;;;;;;4963972;28;20057;-71
2023/01/07 07:32:43;;;;;;;23.45;13.20;;;;;;;;;;4967453;28;20054;-71
2023/01/07 07:35:12;;;;;;;23.98;14.20;;;;;;;;;;4963361;28;20086;-72
2023/01/07 07:37:40;;;;;;;23.20;13.30;;;;;;;;;;4961823;28;20055;-71
2023/01/07 07:40:08;;;;;;;20.58;13.45;;;;;;;;;;4963785;28;20055;-71
2023/01/07 07:42:35;;;;;;;21.90;14.23;;;;;;;;;;4962223;28;20051;-76
2023/01/07 07:45:03;;;;;;;21.63;13.05;;;;;;;;;;4966166;28;20046;-76
2023/01/07 07:47:30;;;;;;;24.98;13.70;;;;;;;;;;4965173;28;20070;-75
2023/01/07 07:49:57;;;;;;;19.27;12.30;;;;;;;;;;4965615;28;20062;-74
2023/01/07 07:52:26;;;;;;;20.27;12.10;;;;;;;;;;4965765;28;20062;-74
2023/01/07 07:54:53;;;;;;;19.65;12.05;;;;;;;;;;4958903;28;20046;-74
2023/01/07 07:57:20;;;;;;;17.27;12.02;;;;;;;;;;4958742;28;20054;-73
2023/01/07 07:59:47;;;;;;;20.13;11.88;;;;;;;;;;4959801;28;20086;-74
2023/01/07 08:02:15;;;;;;;16.80;12.02;;;;;;;;;;4958186;28;20058;-74
2023/01/07 08:04:42;;;;;;;16.20;10.77;;;;;;;;;;4961286;28;20061;-74
2023/01/07 08:07:10;;;;;;;19.15;11.30;;;;;;;;;;4961192;28;20074;-74
2023/01/07 08:09:39;;;;;;;19.15;11.20;;;;;;;;;;4961823;28;20114;-74
2023/01/07 08:12:06;;;;;;;15.98;9.93;;;;;;;;;;4952819;28;20058;-74
2023/01/07 08:14:34;;;;;;;21.23;11.25;;;;;;;;;;4961784;28;20085;-74
2023/01/07 08:17:01;;;;;;;18.75;11.65;;;;;;;;;;4965170;28;20054;-74
2023/01/07 08:19:28;;;;;;;22.08;10.77;;;;;;;;;;4960286;28;20432;-74
2023/01/07 08:21:55;;;;;;;14.98;10.07;;;;;;;;;;4963727;28;21096;-73
2023/01/07 08:24:23;;;;;;;18.63;10.65;;;;;;;;;;4966461;28;20062;-73
2023/01/07 08:26:54;;;;;;;13.75;8.77;;;;;;;;;;4965798;28;20087;-73
2023/01/07 08:29:21;;;;;;;15.68;9.13;;;;;;;;;;4969982;28;20462;-74
2023/01/07 08:31:49;;;;;;;12.10;8.30;;;;;;;;;;4966709;28;20046;-73
2023/01/07 08:34:16;;;;;;;11.18;8.05;;;;;;;;;;4968162;28;20525;-73
2023/01/07 08:36:43;;;;;;;13.50;8.00;;;;;;;;;;4971997;28;20109;-73
2023/01/07 08:39:11;;;;;;;13.27;7.70;;;;;;;;;;4967792;28;20051;-74
2023/01/07 08:41:39;;;;;;;16.73;7.07;;;;;;;;;;4972481;28;20141;-74
2023/01/07 08:44:07;;;;;;;12.27;7.13;;;;;;;;;;4972981;28;20374;-73
2023/01/07 08:46:34;;;;;;;13.65;7.30;;;;;;;;;;4968956;28;20069;-74
2023/01/07 08:49:02;;;;;;;15.48;8.15;;;;;;;;;;4971734;28;20054;-73
2023/01/07 08:51:29;;;;;;;11.98;6.90;;;;;;;;;;4968739;28;20386;-73
2023/01/07 08:53:56;;;;;;;15.70;7.10;;;;;;;;;;4969231;28;20054;-73
2023/01/07 08:56:23;;;;;;;12.23;7.00;;;;;;;;;;4972349;28;21602;-73
2023/01/07 08:58:50;;;;;;;11.50;6.95;;;;;;;;;;4969653;28;20042;-73
2023/01/07 09:01:19;;;;;;;10.15;6.40;;;;;;;;;;4969946;28;20043;-74
2023/01/07 09:03:46;;;;;;;15.48;7.40;;;;;;;;;;4967373;28;20059;-74
2023/01/07 09:06:14;;;;;;;11.27;6.25;;;;;;;;;;4969551;28;20042;-74
2023/01/07 09:08:41;;;;;;;8.88;5.47;;;;;;;;;;4961667;28;20413;-72
2023/01/07 09:11:08;;;;;;;14.13;6.13;;;;;;;;;;4968026;28;20066;-74
2023/01/07 09:13:35;;;;;;;9.98;5.13;;;;;;;;;;4966993;28;20047;-73
2023/01/07 09:16:03;;;;;;;9.50;5.35;;;;;;;;;;4961470;28;20053;-74
2023/01/07 09:18:31;;;;;;;8.82;4.97;;;;;;;;;;4970395;28;20054;-73
2023/01/07 09:20:59;;;;;;;9.55;5.18;;;;;;;;;;4969186;28;20051;-74
2023/01/07 09:23:26;;;;;;;9.30;4.65;;;;;;;;;;4969639;28;20051;-73
2023/01/07 09:25:53;;;;;;;8.45;5.13;;;;;;;;;;4967258;28;20398;-74
2023/01/07 09:28:20;;;;;;;8.15;5.03;;;;;;;;;;4971083;28;20053;-74
2023/01/07 09:30:47;;;;;;;9.10;4.63;;;;;;;;;;4971429;28;20251;-73
2023/01/07 09:33:15;;;;;;;10.73;4.45;;;;;;;;;;4966536;28;20055;-73
2023/01/07 09:35:43;;;;;;;10.77;4.10;;;;;;;;;;4967772;28;20051;-73
2023/01/07 09:38:11;;;;;;;9.88;3.92;;;;;;;;;;4968267;28;20061;-74
2023/01/07 09:40:39;;;;;;;9.05;4.15;;;;;;;;;;4971903;28;20054;-73
2023/01/07 09:43:11;;;;;;;7.63;4.05;;;;;;;;;;4967206;28;20058;-74
2023/01/07 09:45:41;;;;;;;9.55;3.53;;;;;;;;;;4971660;28;20113;-74
2023/01/07 09:48:13;;;;;;;8.73;3.33;;;;;;;;;;4963441;28;20051;-74
2023/01/07 09:50:47;;;;;;;5.72;3.42;;;;;;;;;;4959800;28;20055;-74
2023/01/07 09:53:15;;;;;;;4.53;2.63;;;;;;;;;;4960893;28;20085;-73
2023/01/07 09:55:43;;;;;;;5.57;2.90;;;;;;;;;;4969759;28;20047;-73
2023/01/07 09:58:14;;;;;;;6.60;2.80;;;;;;;;;;4970050;28;20046;-73
2023/01/07 10:00:44;;;;;;;5.97;2.47;;;;;;;;;;4969050;28;20047;-74
2023/01/07 10:03:18;;;;;;;12.85;2.92;;;;;;;;;;4970664;28;20529;-74
2023/01/07 10:05:45;;;;;;;;;;;;;;;;;;4970096;28;20093;-73
2023/01/07 10:08:20;;;;;;;5.80;2.75;;;;;;;;;;4969154;28;20324;-74
2023/01/07 10:10:50;;;;;;;6.10;2.35;;;;;;;;;;4965820;28;20051;-74
2023/01/07 10:13:29;;;;;;;7.68;2.40;;;;;;;;;;4970301;28;20085;-73
2023/01/07 10:15:58;;;;;;;4.32;2.30;;;;;;;;;;4984464;28;20051;-74
2023/01/07 10:18:32;;;;;;;4.93;2.28;;;;;;;;;;4968125;28;20066;-73
2023/01/07 10:21:02;;;;;;;3.75;2.08;;;;;;;;;;4965732;28;20058;-74
2023/01/07 10:23:32;;;;;;;6.63;2.20;;;;;;;;;;4966942;28;20082;-73
2023/01/07 10:26:01;;;;;;;5.63;1.95;;;;;;;;;;4971410;28;20054;-74
2023/01/07 10:28:31;;;;;;;3.60;1.60;;;;;;;;;;4966641;28;20054;-74
2023/01/07 10:31:00;;;;;;;5.32;1.75;;;;;;;;;;4968495;28;20737;-74
2023/01/07 10:33:28;;;;;;;3.38;1.70;;;;;;;;;;4967136;28;20051;-73
2023/01/07 10:36:00;;;;;;;4.15;1.52;;;;;;;;;;4969229;28;20055;-74
2023/01/07 10:38:30;;;;;;;4.15;1.42;;;;;;;;;;4961961;28;20111;-73
2023/01/07 10:41:00;;;;;;;3.17;1.50;;;;;;;;;;4970465;28;20054;-74
2023/01/07 10:43:36;;;;;;;3.38;1.60;;;;;;;;;;4969004;28;20718;-73
2023/01/07 10:46:10;;;;;;;3.45;1.42;;;;;;;;;;4970379;28;20053;-73
2023/01/07 10:48:47;;;;;;;5.40;1.80;;;;;;;;;;4971200;28;20427;-74
2023/01/07 10:51:18;;;;;;;2.90;1.23;;;;;;;;;;4969286;28;20053;-72
2023/01/07 10:53:50;;;;;;;5.50;1.55;;;;;;;;;;4969190;28;20043;-74
2023/01/07 10:56:24;;;;;;;4.13;1.45;;;;;;;;;;4968340;28;20486;-73
2023/01/07 10:58:51;;;;;;;2.38;1.42;;;;;;;;;;4966972;28;20047;-73
2023/01/07 11:01:22;;;;;;;5.00;1.50;;;;;;;;;;4964510;28;20058;-73
2023/01/07 11:03:50;;;;;;;5.25;2.03;;;;;;;;;;4966947;28;20054;-74
2023/01/07 11:06:18;;;;;;;5.35;1.40;;;;;;;;;;4970038;28;20074;-74
2023/01/07 11:08:46;;;;;;;3.58;1.42;;;;;;;;;;4961737;28;20065;-73
2023/01/07 11:11:15;;;;;;;9.38;1.48;;;;;;;;;;4968655;28;20130;-73
2023/01/07 11:13:48;;;;;;;3.10;1.17;;;;;;;;;;4964696;28;20053;-73
2023/01/07 11:16:18;;;;;;;3.92;1.40;;;;;;;;;;4969983;28;20046;-74
2023/01/07 11:18:49;;;;;;;3.83;1.50;;;;;;;;;;4964924;28;20073;-73
2023/01/07 11:21:31;;;;;;;3.35;1.42;;;;;;;;;;4969580;28;20050;-74
2023/01/07 11:24:00;;;;;;;3.10;1.38;;;;;;;;;;4965404;28;20047;-74
2023/01/07 11:26:29;;;;;;;2.25;1.20;;;;;;;;;;4965536;28;20047;-74
2023/01/07 11:28:59;;;;;;;2.95;1.20;;;;;;;;;;4966400;28;20047;-74
2023/01/07 11:31:41;;;;;;;5.30;1.40;;;;;;;;;;4965218;28;20058;-74
2023/01/07 11:34:16;;;;;;;3.28;1.27;;;;;;;;;;4966495;28;20065;-74
2023/01/07 11:36:44;;;;;;;1.90;1.05;;;;;;;;;;4967620;28;20043;-73
2023/01/07 11:39:12;;;;;;;2.97;0.90;;;;;;;;;;4960743;28;20053;-73
2023/01/07 11:41:51;;;;;;;3.00;1.10;;;;;;;;;;4966600;28;20051;-73
2023/01/07 11:44:20;;;;;;;2.00;0.85;;;;;;;;;;4963735;28;20051;-73
2023/01/07 11:46:48;;;;;;;3.75;1.42;;;;;;;;;;4969234;28;20543;-73
2023/01/07 11:49:21;;;;;;;1.88;1.00;;;;;;;;;;4960537;28;20047;-74
2023/01/07 11:51:48;;;;;;;2.42;0.80;;;;;;;;;;4964763;28;20077;-74
2023/01/07 11:54:19;;;;;;;2.60;1.02;;;;;;;;;;4966707;28;20409;-74
2023/01/07 11:56:47;;;;;;;2.33;0.70;;;;;;;;;;4966651;28;20053;-73
2023/01/07 11:59:32;;;;;;;2.05;0.80;;;;;;;;;;4967800;28;20058;-74
2023/01/07 12:02:00;;;;;;;2.97;0.90;;;;;;;;;;4981046;28;20077;-74
2023/01/07 12:04:31;;;;;;;1.92;0.80;;;;;;;;;;4966234;28;20058;-74
2023/01/07 12:07:00;;;;;;;1.80;1.13;;;;;;;;;;4962831;28;20054;-74
2023/01/07 12:09:32;;;;;;;1.20;0.60;;;;;;;;;;4970609;28;20366;-73
2023/01/07 12:12:00;;;;;;;2.55;0.88;;;;;;;;;;4967398;28;20058;-74
2023/01/07 12:14:29;;;;;;;1.02;0.70;;;;;;;;;;4969329;28;20524;-74
2023/01/07 12:16:57;;;;;;;3.40;0.88;;;;;;;;;;4969879;28;20405;-74
2023/01/07 12:19:43;;;;;;;1.13;0.70;;;;;;;;;;4968023;28;20051;-73
2023/01/07 12:22:14;;;;;;;2.42;0.77;;;;;;;;;;4959564;28;20059;-74
2023/01/07 12:25:02;;;;;;;2.80;0.98;;;;;;;;;;4968405;28;20055;-74
2023/01/07 12:27:32;;;;;;;2.78;1.13;;;;;;;;;;4966805;28;20409;-74
2023/01/07 12:30:04;;;;;;;1.92;1.08;;;;;;;;;;4971689;28;20058;-74
2023/01/07 12:32:37;;;;;;;1.95;1.10;;;;;;;;;;4964949;28;20502;-74
2023/01/07 12:35:07;;;;;;;5.13;1.23;;;;;;;;;;4961418;28;20055;-74
2023/01/07 12:37:36;;;;;;;2.97;1.33;;;;;;;;;;4970654;28;20061;-74
2023/01/07 12:40:07;;;;;;;13.15;4.75;;;;;;;;;;4964176;28;20481;-74
2023/01/07 12:42:37;;;;;;;3.00;1.10;;;;;;;;;;4966726;28;20066;-74
2023/01/07 12:45:06;;;;;;;1.92;1.00;;;;;;;;;;4969195;28;20493;-74
2023/01/07 12:47:35;;;;;;;2.33;1.20;;;;;;;;;;4971220;28;20055;-74
2023/01/07 12:50:05;;;;;;;1.63;0.80;;;;;;;;;;4966678;28;20059;-74
2023/01/07 12:52:39;;;;;;;1.20;0.80;;;;;;;;;;4969569;28;20059;-73
2023/01/07 12:55:15;;;;;;;4.85;0.95;;;;;;;;;;4970596;28;20054;-73
2023/01/07 12:57:42;;;;;;;2.85;1.30;;;;;;;;;;4963552;28;20519;-72
2023/01/07 13:00:14;;;;;;;4.97;1.48;;;;;;;;;;4971076;28;20440;-73
2023/01/07 13:02:47;;;;;;;4.38;1.60;;;;;;;;;;4968078;28;20146;-73
2023/01/07 13:05:16;;;;;;;2.55;1.60;;;;;;;;;;4968303;28;20046;-74
2023/01/07 13:07:50;;;;;;;2.78;1.30;;;;;;;;;;4964139;28;20094;-74
2023/01/07 13:10:19;;;;;;;3.47;1.40;;;;;;;;;;4969742;28;20142;-72
2023/01/07 13:12:48;;;;;;;2.47;1.60;;;;;;;;;;4968612;28;20054;-74
2023/01/07 13:15:26;;;;;;;3.08;1.30;;;;;;;;;;4967898;28;20565;-74
2023/01/07 13:17:54;;;;;;;2.15;1.10;;;;;;;;;;4969898;28;20061;-73
2023/01/07 13:20:28;;;;;;;2.33;1.35;;;;;;;;;;4967765;28;21323;-74
2023/01/07 13:22:57;;;;;;;1.80;1.05;;;;;;;;;;4969539;28;20049;-73
2023/01/07 13:25:31;;;;;;;1.52;0.80;;;;;;;;;;4970846;28;20051;-73
2023/01/07 13:28:23;;;;;;;3.00;1.10;;;;;;;;;;4972384;28;20047;-74
2023/01/07 13:30:58;;;;;;;2.15;0.80;;;;;;;;;;4965481;28;20117;-73
2023/01/07 13:33:27;;;;;;;2.75;0.88;;;;;;;;;;4965493;28;20058;-74
2023/01/07 13:36:08;;;;;;;3.60;1.38;;;;;;;;;;4959886;28;20070;-73
2023/01/07 13:38:48;;;;;;;2.13;0.90;;;;;;;;;;4966048;28;20063;-74
2023/01/07 13:41:23;;;;;;;1.90;0.90;;;;;;;;;;4965540;28;20055;-73
2023/01/07 13:44:09;;;;;;;2.58;0.93;;;;;;;;;;4968585;28;20054;-73
2023/01/07 13:46:39;;;;;;;1.38;0.98;;;;;;;;;;4965957;28;20061;-74
2023/01/07 13:49:06;;;;;;;3.08;1.30;;;;;;;;;;4968018;28;20058;-74
2023/01/07 13:51:34;;;;;;;2.92;0.88;;;;;;;;;;4963569;28;20062;-73
2023/01/07 13:54:03;;;;;;;3.35;1.30;;;;;;;;;;4978765;28;20062;-73
2023/01/07 13:56:35;;;;;;;1.20;0.90;;;;;;;;;;4964343;28;20138;-73
2023/01/07 13:59:04;;;;;;;4.97;1.20;;;;;;;;;;4964656;28;20058;-73
2023/01/07 14:01:32;;;;;;;1.73;0.80;;;;;;;;;;4965324;28;20059;-74
2023/01/07 14:04:20;;;;;;;2.13;1.15;;;;;;;;;;4963831;28;20077;-73
2023/01/07 14:06:49;;;;;;;1.48;1.10;;;;;;;;;;4966846;28;20051;-73
2023/01/07 14:09:24;;;;;;;2.67;0.88;;;;;;;;;;4962357;28;20512;-73
2023/01/07 14:12:06;;;;;;;2.70;0.95;;;;;;;;;;4966405;28;20053;-73
2023/01/07 14:14:38;;;;;;;1.58;0.90;;;;;;;;;;4953094;28;20061;-74
2023/01/07 14:17:11;;;;;;;1.80;0.90;;;;;;;;;;4970826;28;20109;-74
2023/01/07 14:19:41;;;;;;;2.50;0.95;;;;;;;;;;4962441;28;20055;-74
2023/01/07 14:22:16;;;;;;;2.17;1.23;;;;;;;;;;4965210;28;20054;-73
2023/01/07 14:25:01;;;;;;;3.65;1.08;;;;;;;;;;4965578;28;20043;-73
2023/01/07 14:27:37;;;;;;;3.53;1.27;;;;;;;;;;4961513;28;20050;-73
2023/01/07 14:30:15;;;;;;;2.40;1.17;;;;;;;;;;4961648;28;20051;-73
2023/01/07 14:32:42;;;;;;;2.65;1.40;;;;;;;;;;4967151;28;20413;-72
2023/01/07 14:35:22;;;;;;;2.00;1.30;;;;;;;;;;4964541;28;20047;-73
2023/01/07 14:37:49;;;;;;;4.50;1.30;;;;;;;;;;4963383;28;20062;-73
2023/01/07 14:40:39;;;;;;;3.15;1.52;;;;;;;;;;4965073;28;20050;-73
2023/01/07 14:43:29;;;;;;;1.80;0.90;;;;;;;;;;4962543;28;20105;-73